Accueil
METAR-TAF:

METAR-TAF

Aéroports :

Nancy, France

Aéroport de Nancy-Essey

latitude: 48-41N, longitude: 006-13E, altitude: 225 m

Observation

Le bulletin a été fait il y a 13 minutes, à 20:00 UTC
Vent 11 kt de nord-est
Température 0°C
Humidité 59%
Pression 1015 hPa
Visibilité 10 km ou plus
Ciel couvert à une hauteur de 3800 ft

METAR: LFSN 232000Z AUTO 04011KT 9999 OVC038 00/M07 Q1015

Heure: 21:13 (20:13 UTC)


TAF: absent

Observations et prévisions météorologiques de plus de 4000 aéroports (messages METAR et TAF).

Les stations disponibles sont représentées par des disques jaunes et rouges sur la carte.

Passer la souris dessus pour voir le nom de la station.

Cliquer dessus pour voir les observations et prévisions météorologiques.

Pour changer de carte: cliquez sur les boutons verts avec une croix noire pour zoomer, sur le bouton vert avec un tiret pour effectuer un zoom arrière, ou sur les flèches vertes pour les cartes adjacentes.


METAR-TAF: